Portada
METAR-TAF:

METAR-TAF

Aeroports :

Rafha, Aràbia Saudita

latitud: 29-37N, longitud: 043-29E, altitud: 449 m

Observació

L'informe es va fer fa 28 minuts, a les 16:00 UTC
Vent 6 kt del Oest
Temperatura 39°C
Humitat 12%
Pressió 1000 hPa
Visibilitat 10 km o més
sense núvols per sota de 1500 mi sense presència de cumulonimbus.

METAR: OERF 051600Z 28006KT CAVOK 39/05 Q1000

Hora: 19:28 (16:28 UTC)

Pronòstic

L'informe es va fer fa 5 hores i 28 minuts, a les 11:00 UTC
Pronòstic vàlid del 05 a les 12 UTC al 06 a les 18 UTC
Vent 13 kt del Oest/Nord-Oest
Visibilitat 10 km o més
sense núvols per sota de 1500 mi sense presència de cumulonimbus.

TAF: OERF 051100Z 0512/0618 30013KT CAVOK

Observacions i pronòstics meteorològics de més de 4000 aeroports (METAR i TAF).

Les estacions disponibles són els punts grocs i vermells al mapa.

Posi el ratolí al punt desitjat per veure el nom de l'estació.

Feu clic per veure les observacions i els pronòstics meteorològics.

Per canviar el mapa: feu clic els botons verds amb una creu de color negre per apropar; al botó verd amb un guió per allunyar la imatge; o en les fletxes verdes per a mapes adjacents.


METAR-TAF: